Main page
METAR-TAF:

METAR-TAF

Airports :

Dublin, Ireland

Dublin Airport

latitude: 53-26N, longitude: 006-15W, elevation: 68 m

Current weather observation

The report was made 25 minutes ago, at 05:00 UTC
Wind 9 kt from the Northeast
Temperature 5°C
Humidity 93%
Pressure 1026 hPa
Visibility 10 km or more
no clouds below 1500 m and no cumulonimbus

METAR: EIDW 260500Z 04009KT CAVOK 05/04 Q1026 NOSIG

Time: 06:25 (05:25 UTC)

Forecast

The report was made 6 hours and 25 minutes ago, at 23:00 UTC
Forecast valid from 26 at 00 UTC to 26 at 24 UTC
Wind 8 kt from the North/Northeast
Visibility 10 km or more
no clouds below 1500 m and no cumulonimbus
Probability 30% :
Temporary
from 26 at 04 UTC to 26 at 07 UTC
Visibility: 2000 m
mist
Becoming
from 26 at 06 UTC to 26 at 09 UTC
Wind 12 kt from the East
Becoming
from 26 at 22 UTC to 26 at 24 UTC
Wind 7 kt from the East/Southeast

TAF: EIDW 252300Z 2600/2624 03008KT CAVOK PROB30 TEMPO 2604/2607 2000 BR BECMG 2606/2609 08012KT BECMG 2622/2624 11007KT

Weather observations and forecasts of more than 4000 airports (METAR and TAF reports).

The available stations are represented by yellow and red dots on the map.

Hover mouse over dot to see the name of the station.

Then click to see weather observations and forecasts.

To change the map : click on the green buttons with a black cross to zoom in, on the green button with a dash to zoom out, or on the green arrows for adjacent maps.


METAR-TAF: